createdAt,value
2019-05-03T00:00:06.794Z,59.30
2019-05-03T00:02:53.405Z,60.10
2019-05-03T00:05:32.542Z,60.40
2019-05-03T00:08:02.907Z,61.10
2019-05-03T00:10:31.772Z,61.70
2019-05-03T00:13:01.903Z,62.90
2019-05-03T00:15:32.357Z,63.50
2019-05-03T00:18:02.390Z,64.20
2019-05-03T00:20:32.501Z,63.90
2019-05-03T00:23:02.799Z,64.10
2019-05-03T00:25:32.627Z,64.40
2019-05-03T00:28:01.864Z,64.50
2019-05-03T00:30:31.969Z,64.80
2019-05-03T00:33:02.718Z,65.20
2019-05-03T00:35:47.611Z,64.70
2019-05-03T00:38:16.765Z,65.30
2019-05-03T00:40:45.122Z,65.80
2019-05-03T00:43:13.520Z,66.70
2019-05-03T00:45:42.268Z,66.70
2019-05-03T00:48:12.318Z,66.50
2019-05-03T00:50:42.460Z,67.20
2019-05-03T00:53:11.708Z,67.30
2019-05-03T00:55:41.980Z,67.50
2019-05-03T00:58:11.769Z,67.50
2019-05-03T01:00:41.763Z,67.50
2019-05-03T01:03:12.418Z,67.50
2019-05-03T01:05:42.238Z,67.50
2019-05-03T01:08:12.503Z,67.50
2019-05-03T01:10:42.141Z,67.30
2019-05-03T01:13:12.282Z,67.70
2019-05-03T01:15:42.459Z,68.10
2019-05-03T01:18:12.469Z,68.00
2019-05-03T01:20:42.172Z,68.30
2019-05-03T01:23:12.441Z,68.60
2019-05-03T01:25:42.747Z,68.60
2019-05-03T01:28:12.247Z,68.80
2019-05-03T01:30:42.517Z,68.30
2019-05-03T01:33:12.148Z,68.50
2019-05-03T01:35:42.650Z,68.50
2019-05-03T01:38:11.723Z,68.70
2019-05-03T01:40:41.867Z,68.90
2019-05-03T01:43:11.701Z,68.90
2019-05-03T01:45:42.353Z,69.40
2019-05-03T01:48:18.029Z,70.50
2019-05-03T01:50:52.176Z,70.50
2019-05-03T01:53:22.453Z,70.30
2019-05-03T01:55:52.289Z,70.50
2019-05-03T01:58:23.691Z,70.80
2019-05-03T02:00:53.791Z,71.20
2019-05-03T02:03:23.858Z,71.20
2019-05-03T02:05:53.968Z,71.90
2019-05-03T02:08:22.381Z,72.60
2019-05-03T02:10:51.807Z,72.60
2019-05-03T02:13:20.307Z,72.10
2019-05-03T02:15:48.718Z,72.30
2019-05-03T02:18:17.075Z,72.50
2019-05-03T02:20:45.509Z,72.60
2019-05-03T02:23:13.890Z,72.70
2019-05-03T02:25:49.731Z,72.90
2019-05-03T02:28:12.703Z,73.80
2019-05-03T02:30:44.081Z,74.60
2019-05-03T02:33:13.415Z,75.20
2019-05-03T02:35:43.003Z,75.80
2019-05-03T02:38:12.977Z,76.10
2019-05-03T02:40:42.863Z,76.30
2019-05-03T02:43:19.130Z,76.40
2019-05-03T02:46:05.975Z,76.50
2019-05-03T02:48:45.858Z,76.40
2019-05-03T02:51:15.594Z,76.50
2019-05-03T02:53:45.698Z,76.60
2019-05-03T02:56:21.974Z,76.70
2019-05-03T02:58:46.020Z,76.70
2019-05-03T03:01:16.213Z,77.20
2019-05-03T03:03:45.745Z,77.10
2019-05-03T03:06:15.653Z,77.40
2019-05-03T03:08:45.467Z,77.50
2019-05-03T03:11:15.570Z,77.80
2019-05-03T03:13:45.781Z,77.80
2019-05-03T03:16:16.309Z,77.90
2019-05-03T03:18:45.636Z,78.20
2019-05-03T03:21:16.425Z,78.40
2019-05-03T03:24:06.281Z,78.50
2019-05-03T03:26:42.112Z,78.60
2019-05-03T03:29:07.635Z,78.50
2019-05-03T03:32:09.369Z,78.60
2019-05-03T03:34:55.384Z,78.90
2019-05-03T03:37:18.703Z,79.00
2019-05-03T03:39:47.088Z,79.00
2019-05-03T03:42:16.315Z,79.00
2019-05-03T03:44:45.423Z,78.80
2019-05-03T03:47:16.627Z,78.80
2019-05-03T03:49:46.275Z,78.90
2019-05-03T03:52:16.047Z,79.20
2019-05-03T03:54:45.655Z,79.60
2019-05-03T03:57:16.104Z,79.60
2019-05-03T03:59:45.419Z,79.80
2019-05-03T04:02:15.983Z,80.10
2019-05-03T04:04:45.100Z,80.30
2019-05-03T04:07:15.835Z,80.50
2019-05-03T04:09:45.663Z,80.60
2019-05-03T04:12:16.417Z,80.50
2019-05-03T04:14:48.851Z,80.30
2019-05-03T04:17:19.012Z,80.30
2019-05-03T04:19:49.015Z,80.00
2019-05-03T04:22:17.426Z,79.90
2019-05-03T04:24:46.075Z,79.60
2019-05-03T04:27:22.307Z,79.60
2019-05-03T04:29:45.382Z,79.30
2019-05-03T04:32:15.699Z,79.10
2019-05-03T04:34:45.416Z,79.00
2019-05-03T04:37:16.229Z,78.80
2019-05-03T04:39:45.655Z,79.00
2019-05-03T04:42:16.498Z,80.10
2019-05-03T04:44:45.649Z,81.90
2019-05-03T04:47:15.753Z,81.20
2019-05-03T04:49:46.331Z,82.50
2019-05-03T04:52:16.579Z,83.80
2019-05-03T04:54:46.142Z,83.80
2019-05-03T04:57:17.607Z,83.80
2019-05-03T04:59:45.152Z,83.80
2019-05-03T05:02:15.953Z,84.30
2019-05-03T05:04:46.075Z,83.80
2019-05-03T05:07:15.567Z,83.30
2019-05-03T05:09:45.653Z,83.40
2019-05-03T05:12:16.217Z,83.00
2019-05-03T05:14:45.725Z,82.50
2019-05-03T05:17:16.368Z,82.50
2019-05-03T05:19:49.511Z,82.90
2019-05-03T05:22:19.601Z,82.90
2019-05-03T05:24:48.032Z,82.70
2019-05-03T05:27:20.677Z,82.40
2019-05-03T05:29:49.083Z,81.50
2019-05-03T05:32:17.504Z,81.40
2019-05-03T05:34:46.120Z,81.70
2019-05-03T05:37:14.600Z,81.90
2019-05-03T05:39:44.643Z,82.40
2019-05-03T05:42:14.869Z,82.40
2019-05-03T05:44:45.261Z,82.80
2019-05-03T05:47:30.390Z,83.40
2019-05-03T05:50:04.993Z,83.40
2019-05-03T05:52:34.652Z,82.80
2019-05-03T05:55:04.812Z,82.00
2019-05-03T05:57:40.772Z,83.10
2019-05-03T06:00:16.622Z,82.40
2019-05-03T06:02:44.994Z,82.20
2019-05-03T06:05:14.808Z,82.40
2019-05-03T06:07:47.659Z,81.70
2019-05-03T06:10:24.862Z,81.10
2019-05-03T06:12:55.036Z,80.60
2019-05-03T06:15:27.890Z,80.50
2019-05-03T06:18:00.658Z,80.50
2019-05-03T06:20:30.655Z,79.10
2019-05-03T06:23:00.702Z,78.40
2019-05-03T06:25:35.363Z,78.00
2019-05-03T06:28:16.967Z,77.00
2019-05-03T06:30:39.849Z,76.90
2019-05-03T06:33:08.190Z,76.40
2019-05-03T06:35:36.549Z,75.80
2019-05-03T06:38:05.081Z,75.00
2019-05-03T06:40:35.263Z,74.50
2019-05-03T06:43:09.834Z,74.00
2019-05-03T06:45:35.348Z,72.80
2019-05-03T06:48:05.435Z,73.00
2019-05-03T06:50:34.814Z,72.80
2019-05-03T06:53:05.946Z,72.80
2019-05-03T06:55:35.086Z,73.80
2019-05-03T06:58:05.078Z,73.60
2019-05-03T07:00:35.328Z,73.90
2019-05-03T07:03:05.332Z,74.20
2019-05-03T07:05:50.522Z,73.90
2019-05-03T07:08:37.070Z,74.60
2019-05-03T07:11:07.141Z,74.10
2019-05-03T07:13:35.510Z,74.40
2019-05-03T07:16:04.659Z,73.80
2019-05-03T07:18:35.016Z,73.80
2019-05-03T07:21:04.917Z,73.10
2019-05-03T07:23:34.940Z,72.50
2019-05-03T07:26:05.350Z,72.20
2019-05-03T07:28:44.493Z,73.10
2019-05-03T07:31:04.768Z,72.70
2019-05-03T07:33:34.929Z,71.90
2019-05-03T07:36:05.282Z,71.80
2019-05-03T07:38:34.976Z,71.30
2019-05-03T07:41:05.295Z,71.40
2019-05-03T07:43:35.863Z,70.50
2019-05-03T07:46:05.455Z,69.30
2019-05-03T07:48:35.348Z,67.60
2019-05-03T07:51:05.538Z,67.20
2019-05-03T07:53:34.882Z,67.00
2019-05-03T07:56:15.513Z,66.20
2019-05-03T07:58:58.622Z,65.70
2019-05-03T08:01:26.198Z,66.30
2019-05-03T08:03:55.138Z,65.50
2019-05-03T08:06:24.684Z,66.10
2019-05-03T08:08:54.555Z,65.20
2019-05-03T08:11:24.738Z,65.00
2019-05-03T08:13:54.922Z,65.50
2019-05-03T08:16:25.063Z,64.00
2019-05-03T08:18:55.616Z,63.80
2019-05-03T08:21:25.265Z,63.10
2019-05-03T08:23:55.482Z,61.70
2019-05-03T08:26:25.085Z,61.20
2019-05-03T08:29:15.277Z,60.80
2019-05-03T08:31:37.362Z,60.70
2019-05-03T08:34:10.425Z,60.10
2019-05-03T08:36:58.794Z,59.40
2019-05-03T08:39:46.676Z,58.70
2019-05-03T08:42:16.904Z,59.20
2019-05-03T08:44:45.380Z,59.80
2019-05-03T08:47:15.503Z,60.20
2019-05-03T08:49:45.036Z,60.70
2019-05-03T08:52:15.552Z,60.00
2019-05-03T08:54:44.861Z,59.10
2019-05-03T08:57:14.974Z,58.50
2019-05-03T08:59:44.626Z,58.20
2019-05-03T09:02:17.279Z,58.00
2019-05-03T09:04:44.062Z,58.20
2019-05-03T09:07:14.847Z,58.50
2019-05-03T09:09:46.089Z,57.80
2019-05-03T09:12:14.722Z,57.20
2019-05-03T09:14:47.795Z,57.80
2019-05-03T09:17:15.132Z,58.80
2019-05-03T09:19:45.330Z,59.50
2019-05-03T09:22:14.746Z,59.80
2019-05-03T09:24:45.405Z,60.40
2019-05-03T09:27:14.889Z,60.90
2019-05-03T09:29:45.567Z,59.90
2019-05-03T09:32:14.734Z,60.50
2019-05-03T09:34:44.525Z,59.90
2019-05-03T09:37:15.257Z,59.60
2019-05-03T09:39:44.632Z,59.10
2019-05-03T09:42:14.947Z,58.60
2019-05-03T09:44:44.914Z,58.90
2019-05-03T09:47:14.628Z,59.30
2019-05-03T09:49:45.233Z,59.50
2019-05-03T09:52:17.724Z,57.60
2019-05-03T09:54:47.709Z,56.60
2019-05-03T09:57:16.162Z,56.50
2019-05-03T09:59:56.135Z,56.90
2019-05-03T10:02:15.188Z,56.80
2019-05-03T10:04:44.605Z,56.10
2019-05-03T10:07:15.378Z,56.40
2019-05-03T10:09:44.992Z,56.80
2019-05-03T10:12:16.198Z,57.20
2019-05-03T10:14:45.239Z,57.60
2019-05-03T10:17:21.340Z,58.00
2019-05-03T10:19:49.631Z,58.00
2019-05-03T10:22:20.006Z,58.20
2019-05-03T10:24:48.478Z,58.50
2019-05-03T10:27:16.894Z,58.30
2019-05-03T10:29:45.286Z,58.60
2019-05-03T10:32:27.058Z,58.50
2019-05-03T10:35:02.856Z,58.60
2019-05-03T10:37:35.884Z,58.70
2019-05-03T10:40:07.701Z,58.90
2019-05-03T10:42:35.343Z,59.90
2019-05-03T10:45:04.742Z,61.30
2019-05-03T10:47:34.931Z,62.10
2019-05-03T10:50:07.017Z,64.20
2019-05-03T10:52:39.797Z,63.70
2019-05-03T10:55:08.207Z,62.50
2019-05-03T10:57:38.191Z,59.80
2019-05-03T11:00:40.880Z,59.20
2019-05-03T11:02:48.685Z,59.50
2019-05-03T11:05:17.044Z,59.30
2019-05-03T11:07:45.409Z,58.80
2019-05-03T11:10:14.684Z,58.50
2019-05-03T11:12:43.225Z,58.60
2019-05-03T11:15:11.677Z,59.10
2019-05-03T11:17:40.062Z,63.00
2019-05-03T11:20:08.416Z,65.30
2019-05-03T11:22:36.897Z,63.60
2019-05-03T11:25:06.438Z,63.70
2019-05-03T11:27:36.537Z,62.50
2019-05-03T11:30:09.270Z,62.40
2019-05-03T11:32:38.478Z,64.00
2019-05-03T11:35:15.071Z,63.00
2019-05-03T11:37:45.446Z,61.00
2019-05-03T11:40:15.712Z,60.40
2019-05-03T11:42:44.773Z,59.50
2019-05-03T11:45:15.214Z,58.50
2019-05-03T11:47:45.702Z,57.60
2019-05-03T11:50:14.850Z,56.60
2019-05-03T11:52:46.831Z,54.80
2019-05-03T11:55:15.747Z,54.00
2019-05-03T11:57:45.016Z,52.80
2019-05-03T12:00:15.940Z,50.70
2019-05-03T12:02:45.974Z,49.50
2019-05-03T12:05:27.979Z,49.10
2019-05-03T12:07:56.325Z,47.40
2019-05-03T12:10:36.647Z,47.10
2019-05-03T12:13:12.782Z,47.00
2019-05-03T12:15:41.310Z,46.40
2019-05-03T12:18:10.874Z,45.90
2019-05-03T12:20:40.421Z,45.00
2019-05-03T12:23:10.187Z,45.00
2019-05-03T12:25:39.707Z,44.80
2019-05-03T12:28:08.428Z,44.20
2019-05-03T12:30:36.751Z,43.10
2019-05-03T12:33:05.950Z,41.60
2019-05-03T12:35:35.804Z,40.80
2019-05-03T12:38:05.532Z,40.30
2019-05-03T12:40:34.964Z,39.70
2019-05-03T12:43:05.987Z,39.80
2019-05-03T12:45:35.348Z,39.00
2019-05-03T12:48:04.994Z,39.00
2019-05-03T12:50:34.669Z,40.00
2019-05-03T12:53:04.836Z,40.60
2019-05-03T12:55:35.481Z,40.50
2019-05-03T12:58:05.861Z,40.10
2019-05-03T13:00:38.071Z,40.20
2019-05-03T13:03:08.066Z,40.20
2019-05-03T13:05:36.438Z,40.20
2019-05-03T13:08:26.417Z,40.00
2019-05-03T13:10:55.698Z,39.00
2019-05-03T13:13:24.990Z,38.60
2019-05-03T13:15:55.007Z,38.20
2019-05-03T13:18:25.217Z,37.40
2019-05-03T13:20:55.643Z,36.90
2019-05-03T13:23:25.422Z,36.90
2019-05-03T13:25:53.846Z,36.80
2019-05-03T13:28:22.337Z,37.30
2019-05-03T13:30:50.740Z,37.40
2019-05-03T13:33:19.141Z,37.40
2019-05-03T13:35:47.634Z,37.20
2019-05-03T13:38:16.007Z,36.40
2019-05-03T13:40:45.329Z,36.00
2019-05-03T13:43:15.033Z,36.10
2019-05-03T13:45:45.006Z,36.40
2019-05-03T13:48:15.572Z,36.40
2019-05-03T13:50:44.581Z,36.50
2019-05-03T13:53:16.016Z,36.20
2019-05-03T13:55:44.522Z,36.20
2019-05-03T13:58:14.763Z,35.20
2019-05-03T14:00:45.144Z,33.80
2019-05-03T14:03:15.067Z,32.40
2019-05-03T14:05:44.625Z,31.10
2019-05-03T14:08:15.401Z,29.80
2019-05-03T14:10:45.255Z,28.70
2019-05-03T14:13:13.323Z,28.60
2019-05-03T14:15:41.768Z,29.00
2019-05-03T14:18:10.192Z,29.40
2019-05-03T14:20:56.818Z,29.80
2019-05-03T14:23:25.416Z,30.10
2019-05-03T14:25:55.258Z,30.90
2019-05-03T14:28:25.259Z,31.50
2019-05-03T14:30:54.776Z,31.80
2019-05-03T14:33:24.930Z,31.70
2019-05-03T14:35:54.708Z,32.40
2019-05-03T14:38:25.315Z,32.90
2019-05-03T14:40:55.122Z,33.10
2019-05-03T14:43:24.856Z,33.30
2019-05-03T14:45:55.084Z,33.30
2019-05-03T14:48:24.883Z,33.40
2019-05-03T14:50:54.984Z,33.60
2019-05-03T14:53:25.483Z,33.80
2019-05-03T14:55:55.215Z,34.10
2019-05-03T14:58:28.338Z,34.60
2019-05-03T15:01:07.346Z,35.00
2019-05-03T15:03:35.879Z,35.40
2019-05-03T15:06:05.145Z,35.70
2019-05-03T15:08:35.016Z,35.80
2019-05-03T15:11:05.284Z,35.80
2019-05-03T15:13:34.995Z,36.20
2019-05-03T15:16:05.209Z,36.30
2019-05-03T15:18:34.823Z,36.40
2019-05-03T15:21:05.342Z,36.90
2019-05-03T15:23:34.674Z,37.20
2019-05-03T15:26:05.181Z,38.10
2019-05-03T15:28:35.620Z,38.60
2019-05-03T15:31:04.564Z,39.30
2019-05-03T15:33:35.183Z,39.60
2019-05-03T15:36:04.783Z,39.90
2019-05-03T15:38:34.652Z,40.20
2019-05-03T15:41:05.199Z,39.90
2019-05-03T15:43:34.960Z,40.10
2019-05-03T15:46:07.834Z,40.10
2019-05-03T15:48:37.859Z,40.10
2019-05-03T15:51:06.331Z,40.20
2019-05-03T15:53:35.347Z,40.50
2019-05-03T15:56:05.367Z,40.80
2019-05-03T15:58:34.035Z,42.70
2019-05-03T16:01:04.530Z,45.70
2019-05-03T16:03:32.644Z,47.40
2019-05-03T16:06:01.041Z,48.70
2019-05-03T16:08:29.392Z,49.40
2019-05-03T16:10:57.711Z,50.00
2019-05-03T16:13:27.136Z,50.60
2019-05-03T16:15:55.560Z,50.90
2019-05-03T16:18:24.558Z,51.40
2019-05-03T16:20:54.555Z,50.40
2019-05-03T16:23:24.977Z,48.70
2019-05-03T16:25:54.417Z,48.00
2019-05-03T16:28:27.712Z,46.80
2019-05-03T16:30:57.755Z,46.10
2019-05-03T16:33:27.910Z,46.40
2019-05-03T16:35:56.158Z,46.50
2019-05-03T16:38:24.983Z,46.60
2019-05-03T16:40:54.487Z,46.60
2019-05-03T16:43:23.074Z,46.90
2019-05-03T16:45:51.480Z,46.70
2019-05-03T16:48:19.982Z,46.50
2019-05-03T16:50:49.465Z,46.50
2019-05-03T16:53:17.999Z,46.60
2019-05-03T16:55:46.516Z,46.80
2019-05-03T16:58:16.953Z,47.10
2019-05-03T17:00:45.127Z,47.30
2019-05-03T17:03:14.719Z,47.50
2019-05-03T17:05:45.254Z,47.80
2019-05-03T17:08:18.045Z,47.90
2019-05-03T17:10:51.072Z,48.30
2019-05-03T17:13:19.436Z,48.40
2019-05-03T17:15:47.874Z,48.90
2019-05-03T17:18:17.251Z,49.50
2019-05-03T17:20:45.761Z,51.60
2019-05-03T17:23:15.467Z,52.10
2019-05-03T17:25:44.522Z,59.80
2019-05-03T17:28:12.992Z,87.40
2019-05-03T17:30:41.422Z,87.40
2019-05-03T17:33:09.813Z,92.00
2019-05-03T17:35:38.217Z,91.50
2019-05-03T17:38:06.662Z,94.10
2019-05-03T17:40:36.641Z,95.00
2019-05-03T17:43:09.414Z,95.10
2019-05-03T17:45:39.566Z,94.00
2019-05-03T17:48:07.891Z,93.70
2019-05-03T17:50:36.298Z,93.10
2019-05-03T17:53:22.670Z,91.50
2019-05-03T17:56:01.994Z,91.90
2019-05-03T17:58:59.358Z,91.20
2019-05-03T18:01:32.064Z,91.20
2019-05-03T18:04:06.681Z,91.10
2019-05-03T18:06:50.433Z,87.30
2019-05-03T18:09:23.385Z,88.90
2019-05-03T18:11:56.254Z,89.30
2019-05-03T18:14:25.106Z,90.20
2019-05-03T18:16:54.872Z,88.00
2019-05-03T18:19:23.386Z,90.10
2019-05-03T18:21:51.846Z,90.00
2019-05-03T18:24:20.187Z,89.90
2019-05-03T18:26:48.573Z,87.30
2019-05-03T18:29:17.019Z,88.40
2019-05-03T18:34:19.903Z,88.60
2019-05-03T18:36:45.008Z,89.60
2019-05-03T18:39:14.721Z,88.40
2019-05-03T18:41:45.048Z,89.50
2019-05-03T18:44:14.997Z,89.90
2019-05-03T18:46:50.975Z,87.60
2019-05-03T18:49:19.429Z,88.20
2019-05-03T18:51:47.826Z,89.90
2019-05-03T18:54:16.213Z,90.40
2019-05-03T18:56:44.618Z,90.80
2019-05-03T18:59:14.667Z,90.10
2019-05-03T19:01:45.052Z,88.30
2019-05-03T19:04:34.082Z,88.10
2019-05-03T19:07:03.757Z,89.80
2019-05-03T19:09:37.454Z,90.10
2019-05-03T19:12:07.494Z,90.30
2019-05-03T19:14:35.905Z,90.40
2019-05-03T19:17:24.849Z,88.50
2019-05-03T19:19:57.578Z,88.10
2019-05-03T19:22:25.910Z,88.90
2019-05-03T19:24:54.303Z,90.00
2019-05-03T19:27:24.973Z,90.10
2019-05-03T19:29:55.237Z,90.80
2019-05-03T19:32:25.573Z,90.50
2019-05-03T19:34:54.930Z,90.60
2019-05-03T19:37:25.123Z,90.60
2019-05-03T19:39:55.292Z,90.00
2019-05-03T19:42:27.317Z,89.60
2019-05-03T19:44:55.354Z,89.40
2019-05-03T19:47:25.185Z,90.00
2019-05-03T19:49:54.672Z,88.80
2019-05-03T19:52:25.408Z,88.30
2019-05-03T19:54:55.480Z,88.00
2019-05-03T19:57:25.815Z,88.80
2019-05-03T19:59:56.819Z,89.70
2019-05-03T20:02:35.373Z,89.80
2019-05-03T20:05:09.761Z,90.70
2019-05-03T20:07:49.103Z,90.80
2019-05-03T20:10:18.083Z,91.20
2019-05-03T20:12:46.622Z,91.20
2019-05-03T20:15:15.043Z,91.30
2019-05-03T20:17:56.198Z,91.50
2019-05-03T20:20:15.327Z,91.80
2019-05-03T20:22:45.064Z,91.80
2019-05-03T20:25:15.198Z,91.50
2019-05-03T20:27:44.556Z,91.80
2019-05-03T20:30:14.875Z,91.90
2019-05-03T20:32:44.991Z,91.40
2019-05-03T20:35:18.918Z,91.50
2019-05-03T20:37:44.885Z,91.80
2019-05-03T20:40:15.220Z,91.50
2019-05-03T20:43:01.247Z,91.30
2019-05-03T20:45:37.241Z,91.40
2019-05-03T20:48:10.268Z,91.00
2019-05-03T20:50:38.614Z,91.10
2019-05-03T20:53:07.111Z,91.30
2019-05-03T20:55:35.511Z,91.30
2019-05-03T20:58:06.473Z,91.40
2019-05-03T21:00:34.586Z,91.40
2019-05-03T21:03:04.771Z,91.70
2019-05-03T21:05:34.738Z,91.40
2019-05-03T21:08:03.163Z,91.40
2019-05-03T21:10:31.567Z,91.60
2019-05-03T21:12:59.950Z,91.60
2019-05-03T21:15:30.026Z,91.70
2019-05-03T21:18:04.758Z,91.60
2019-05-03T21:20:37.364Z,91.40
2019-05-03T21:23:07.558Z,91.60
2019-05-03T21:26:02.762Z,91.90
2019-05-03T21:28:07.756Z,91.90
2019-05-03T21:30:36.167Z,91.80
2019-05-03T21:33:05.384Z,91.70
2019-05-03T21:35:41.466Z,91.80
2019-05-03T21:38:04.006Z,91.30
2019-05-03T21:40:32.361Z,91.00
2019-05-03T21:43:00.755Z,90.90
2019-05-03T21:45:30.783Z,90.60
2019-05-03T21:48:00.764Z,90.60
2019-05-03T21:50:29.197Z,90.50
2019-05-03T21:52:59.212Z,90.60
2019-05-03T21:55:27.593Z,90.70
2019-05-03T21:57:55.960Z,90.80
2019-05-03T22:00:25.937Z,90.60
2019-05-03T22:02:54.644Z,90.70
2019-05-03T22:05:26.477Z,90.90
2019-05-03T22:07:55.020Z,90.90
2019-05-03T22:10:25.435Z,90.80
2019-05-03T22:12:54.440Z,90.90
2019-05-03T22:15:41.104Z,90.80
2019-05-03T22:18:15.263Z,90.90
2019-05-03T22:20:48.452Z,90.80
2019-05-03T22:23:18.588Z,90.90
2019-05-03T22:25:47.130Z,91.00
2019-05-03T22:28:16.780Z,91.10
2019-05-03T22:30:45.415Z,91.10
2019-05-03T22:33:14.538Z,91.00
2019-05-03T22:35:44.519Z,91.00
2019-05-03T22:38:13.043Z,91.20
2019-05-03T22:40:41.528Z,91.30
2019-05-03T22:43:10.078Z,91.20
2019-05-03T22:45:38.491Z,91.20
2019-05-03T22:48:06.959Z,91.30
2019-05-03T22:50:35.317Z,91.40
2019-05-03T22:53:05.538Z,91.40
2019-05-03T22:55:35.677Z,91.40
2019-05-03T22:58:05.095Z,91.60
2019-05-03T23:00:35.268Z,91.50
2019-05-03T23:03:03.730Z,91.30
2019-05-03T23:05:32.158Z,91.30
2019-05-03T23:08:00.545Z,91.30
2019-05-03T23:10:28.981Z,91.30
2019-05-03T23:12:57.276Z,91.40
2019-05-03T23:15:25.644Z,91.40
2019-05-03T23:17:54.529Z,91.50
2019-05-03T23:20:25.456Z,91.50
2019-05-03T23:22:54.729Z,91.50
2019-05-03T23:25:25.027Z,91.60
2019-05-03T23:27:55.120Z,91.70
2019-05-03T23:30:24.845Z,91.60
2019-05-03T23:32:54.723Z,91.60
2019-05-03T23:35:24.670Z,91.60
2019-05-03T23:37:54.336Z,91.70
2019-05-03T23:40:22.930Z,91.60
2019-05-03T23:42:51.391Z,91.60
2019-05-03T23:45:19.752Z,91.70
2019-05-03T23:47:49.049Z,91.50
2019-05-03T23:50:19.036Z,91.50
2019-05-03T23:52:47.411Z,91.60
2019-05-03T23:55:20.258Z,91.50
2019-05-03T23:57:48.661Z,91.50
